Bitflower — SBJE — position and weather

sailwx.info

Track history (hours):
 
Tides and Currents Weather Stations Pressure Air Temp Water Temp Dewpoint Dewpoint Depression Visibility Wind Speed Wind Dir Waves Ship Positions

Bitflower

Last reported at 2014-Aug-01 20:32 UTC. Time now 2014-Aug-01 22:38 UTC.
Position N 50°37' E 000°26'.

Length 116 m; draft 6.7 m.

Type: Ship. MMSI: 266009000.

Date/timePositionNaut miles runAvg speedWind from/ knotsBaromVisibWave heightAir tempDewpointWater temp
2014-Aug-01 20:32N 50°37' E 000°26'1414.5
2014-Aug-01 19:34N 50°43' E 000°45'1414.1
2014-Aug-01 18:34N 50°52' E 001°03'1313.1
2014-Aug-01 17:32N 51°00' E 001°20'1111.7
2014-Aug-01 16:33N 51°08' E 001°33'1110.7
2014-Aug-01 15:33N 51°15' E 001°46'1211.8
2014-Aug-01 14:33N 51°24' E 001°58'1212.2
2014-Aug-01 13:33N 51°21' E 002°17'1212.5
2014-Aug-01 12:33N 51°23' E 002°36'1313.4
2014-Aug-01 11:33N 51°23' E 002°58'1414.1
2014-Aug-01 10:33N 51°24' E 003°20'1313.5
2014-Aug-01 09:33N 51°26' E 003°42'1010.2
2014-Aug-01 08:33N 51°26' E 003°58'1111.2
2014-Aug-01 07:33N 51°21' E 004°15'2 1.6
2014-Aug-01 06:33N 51°21' E 004°17'1 0.7
2014-Aug-01 05:33N 51°20' E 004°18'5 4.6
2014-Aug-01 04:33N 51°16' E 004°21'1 1.1
2014-Aug-01 03:33N 51°15' E 004°22'0 0.0
2014-Aug-01 02:33N 51°15' E 004°22'0 0.0
2014-Aug-01 01:33N 51°15' E 004°22'0 0.0
2014-Aug-01 00:30N 51°15' E 004°22'0 0.0
2014-Jul-31 23:33N 51°15' E 004°22'0 0.0
2014-Jul-31 22:30N 51°15' E 004°22'0 0.0
2014-Jul-31 21:30N 51°15' E 004°22'0 0.0
2014-Jul-31 20:33N 51°15' E 004°22'0 0.0
2014-Jul-31 19:33N 51°15' E 004°22'0 0.0
2014-Jul-31 18:33N 51°15' E 004°22'0 0.0
2014-Jul-31 17:33N 51°15' E 004°22'0 0.0
2014-Jul-31 16:33N 51°15' E 004°22'0 0.0
2014-Jul-31 15:33N 51°15' E 004°22'0 0.0
2014-Jul-31 14:33N 51°15' E 004°22'0 0.0
2014-Jul-31 13:33N 51°15' E 004°22'0 0.0
2014-Jul-31 12:33N 51°15' E 004°22'0 0.0
2014-Jul-31 11:33N 51°15' E 004°22'0 0.0
2014-Jul-31 10:30N 51°15' E 004°22'0 0.0
2014-Jul-31 09:33N 51°15' E 004°22'0 0.0
2014-Jul-31 08:33N 51°15' E 004°22'0 0.0
2014-Jul-31 07:33N 51°15' E 004°22'0 0.0
2014-Jul-31 06:33N 51°15' E 004°22'0 0.0
2014-Jul-31 05:33N 51°15' E 004°22'0 0.0
2014-Jul-31 04:33N 51°15' E 004°22'0 0.0
2014-Jul-31 03:33N 51°15' E 004°22'0 0.0
2014-Jul-31 02:33N 51°15' E 004°22'0 0.0
2014-Jul-31 01:33N 51°15' E 004°22'0 0.0
2014-Jul-31 00:33N 51°15' E 004°22'0 0.0
2014-Jul-30 23:33N 51°15' E 004°22'0 0.2
2014-Jul-30 22:34N 51°15' E 004°22'5 4.6
2014-Jul-30 21:33N 51°19' E 004°19'2 1.6
2014-Jul-30 20:33N 51°21' E 004°17'0 0.5
2014-Jul-30 19:33N 51°21' E 004°16'5 4.6
2014-Jul-30 18:33N 51°23' E 004°10'7 7.4
2014-Jul-30 17:33N 51°26' E 003°59'1010.0
2014-Jul-30 16:33N 51°22' E 003°45'1413.7
2014-Jul-30 15:33N 51°30' E 003°27'10013.7
2014-Jul-30 08:16N 52°55' E 002°03'1115.9
2014-Jul-30 07:33N 53°03' E 001°49'1515.3
2014-Jul-30 06:33N 53°14' E 001°31'5114.7
2014-Jul-30 03:07N 53°52' E 000°34'814.0
2014-Jul-30 02:33N 53°57' E 000°25'1413.7
2014-Jul-30 01:33N 54°07' E 000°10'1313.0
2014-Jul-30 00:33N 54°17' W 000°05'1313.0
2014-Jul-29 23:33N 54°27' W 000°20'1312.5
2014-Jul-29 22:33N 54°35' W 000°37'1413.4
2014-Jul-29 21:33N 54°40' W 000°59'7 1.0
2014-Jul-29 14:24N 54°37' W 001°10'0 0.0
2014-Jul-29 13:12N 54°37' W 001°10'0 0.0
2014-Jul-29 12:12N 54°37' W 001°10'0 0.0
2014-Jul-29 11:30N 54°37' W 001°10'0 0.0
2014-Jul-29 09:30N 54°37' W 001°10'0 0.0
2014-Jul-29 08:21N 54°37' W 001°10'0 0.0
2014-Jul-29 07:18N 54°37' W 001°10'0 0.0
2014-Jul-29 06:06N 54°37' W 001°10'0 0.0
2014-Jul-29 05:27N 54°37' W 001°10'0 0.0
2014-Jul-28 20:04N 54°37' W 001°09'5 8.0
2014-Jul-28 19:28N 54°41' W 001°05'2 2.3
2014-Jul-28 18:24N 54°40' W 001°01'0 0.0
2014-Jul-28 17:33N 54°40' W 001°01'0 0.0
2014-Jul-28 16:24N 54°40' W 001°01'0 0.0
2014-Jul-28 15:24N 54°40' W 001°01'0 0.0
2014-Jul-28 14:33N 54°40' W 001°01'0 0.0
2014-Jul-28 13:33N 54°40' W 001°01'0 0.0
2014-Jul-28 12:24N 54°40' W 001°01'0 0.0
2014-Jul-28 10:33N 54°40' W 001°01'0 0.0
2014-Jul-28 09:21N 54°40' W 001°01'0 0.0
2014-Jul-28 08:33N 54°40' W 001°01'0 0.0
2014-Jul-28 07:33N 54°40' W 001°01'0 0.0
2014-Jul-28 06:33N 54°40' W 001°01'0 0.0
2014-Jul-28 05:27N 54°40' W 001°01'0 0.0
2014-Jul-28 04:33N 54°40' W 001°01'2 2.0
2014-Jul-28 03:32N 54°41' W 000°59'7 7.1
2014-Jul-28 02:33N 54°45' W 000°48'8 7.5
2014-Jul-28 01:33N 54°48' W 000°36'8 8.0
2014-Jul-28 00:33N 54°51' W 000°24'1311.6
2014-Jul-27 23:25N 54°57' W 000°03'2412.9
2014-Jul-27 21:32N 55°07' E 000°36'34913.4
2014-Jul-26 19:32N 57°47' E 009°56'1313.8
2014-Jul-26 18:33N 57°49' E 010°21'1413.8
2014-Jul-26 17:33N 57°47' E 010°46'1413.8
2014-Jul-26 16:33N 57°38' E 011°06'2713.2
2014-Jul-26 14:33N 57°17' E 011°35'1413.6
2014-Jul-26 13:33N 57°04' E 011°42'1413.5
2014-Jul-26 12:32N 56°51' E 011°51'1414.0
2014-Jul-26 11:33N 56°38' E 011°57'1413.6
2014-Jul-26 10:33N 56°24' E 012°03'1312.8
2014-Jul-26 09:33N 56°14' E 012°16'1413.8
2014-Jul-26 08:33N 56°05' E 012°36'1313.4
2014-Jul-26 07:33N 55°53' E 012°44'1313.4
2014-Jul-26 06:33N 55°41' E 012°55'9 8.6
2014-Jul-26 05:33N 55°33' E 012°48'9 8.9
2014-Jul-26 04:34N 55°25' E 012°41'10 9.5
2014-Jul-26 03:33N 55°17' E 012°49'1311.6
2014-Jul-26 02:27N 55°15' E 013°11'1212.1
2014-Jul-26 01:29N 55°14' E 013°32'1412.2
2014-Jul-26 00:21N 55°13' E 013°56'1012.2
2014-Jul-25 23:31N 55°14' E 014°14'1111.6
2014-Jul-25 22:33N 55°22' E 014°27'1212.4
2014-Jul-25 21:33N 55°30' E 014°43'1312.7
2014-Jul-25 20:33N 55°37' E 015°02'1313.0
2014-Jul-25 19:33N 55°43' E 015°22'1313.5
2014-Jul-25 18:33N 55°50' E 015°43'1413.8
2014-Jul-25 17:33N 55°56' E 016°05'1413.9
2014-Jul-25 16:33N 56°03' E 016°27'1413.6
2014-Jul-25 15:32N 56°12' E 016°46'1413.9
2014-Jul-25 14:33N 56°25' E 016°52'1414.1
2014-Jul-25 13:33N 56°38' E 016°58'1414.0
2014-Jul-25 12:33N 56°52' E 017°05'1414.0
2014-Jul-25 11:33N 57°05' E 017°12'1414.0
2014-Jul-25 10:33N 57°19' E 017°18'1414.0
2014-Jul-25 09:33N 57°33' E 017°24'1413.8
2014-Jul-25 08:33N 57°46' E 017°30'1413.8
2014-Jul-25 07:33N 57°60' E 017°36'1413.7
2014-Jul-25 06:33N 58°13' E 017°42'28 1.2
2014-Jul-24 07:21N 58°37' E 017°14'1114.2
2014-Jul-24 06:33N 58°36' E 016°52'1313.3
2014-Jul-24 05:33N 58°39' E 016°27'7 6.6
2014-Jul-24 04:32N 58°37' E 016°15'0 0.0
2014-Jul-24 03:32N 58°37' E 016°15'0 0.0
2014-Jul-24 02:32N 58°37' E 016°15'0 0.0
2014-Jul-24 01:32N 58°37' E 016°15'0 0.0
2014-Jul-24 00:32N 58°37' E 016°15'0 0.0
2014-Jul-23 23:32N 58°37' E 016°15'0 0.0
2014-Jul-23 22:32N 58°37' E 016°15'0 0.0
2014-Jul-23 21:32N 58°37' E 016°15'0 0.0
2014-Jul-23 20:32N 58°37' E 016°15'0 0.0
2014-Jul-23 19:32N 58°37' E 016°15'0 0.0
2014-Jul-23 18:32N 58°37' E 016°15'0 0.0
2014-Jul-23 17:32N 58°37' E 016°15'0 0.0
2014-Jul-23 16:32N 58°37' E 016°15'0 0.0
2014-Jul-23 15:32N 58°37' E 016°15'0 0.0
2014-Jul-23 14:32N 58°37' E 016°15'0 0.0
2014-Jul-23 13:33N 58°37' E 016°15'5 4.7
2014-Jul-23 12:33N 58°39' E 016°23'1312.7
2014-Jul-23 11:33N 58°37' E 016°48'43 9.7
2014-Jul-23 07:08N 57°59' E 017°25'813.6
2014-Jul-23 06:33N 57°51' E 017°24'1413.5
2014-Jul-23 05:30N 57°37' E 017°22'1313.3
2014-Jul-23 04:33N 57°25' E 017°20'1313.0
2014-Jul-23 03:33N 57°12' E 017°16'1313.0
2014-Jul-23 02:33N 56°59' E 017°11'1313.2
2014-Jul-23 01:33N 56°46' E 017°06'1313.5
2014-Jul-23 00:33N 56°33' E 017°00'1413.3
2014-Jul-22 23:31N 56°19' E 016°55'1313.3
2014-Jul-22 22:33N 56°07' E 016°50'1913.1
2014-Jul-22 21:05N 55°55' E 016°23'  
Track history (hours):
 
Tides and Currents Weather Stations Pressure Air Temp Water Temp Dewpoint Dewpoint Depression Visibility Wind Speed Wind Dir Waves Ship Positions

Bitflower

Last reported at 2014-Aug-01 20:32 UTC. Time now 2014-Aug-01 22:38 UTC.
Position N 50°37' E 000°26'.

Length 116 m; draft 6.7 m.

Type: Ship. MMSI: 266009000.

Date/timePositionNaut miles runAvg speedWind from/ knotsBaromVisibWave heightAir tempDewpointWater temp
2014-Aug-01 20:32N 50°37' E 000°26'1414.5
2014-Aug-01 19:34N 50°43' E 000°45'1414.1
2014-Aug-01 18:34N 50°52' E 001°03'1313.1
2014-Aug-01 17:32N 51°00' E 001°20'1111.7
2014-Aug-01 16:33N 51°08' E 001°33'1110.7
2014-Aug-01 15:33N 51°15' E 001°46'1211.8
2014-Aug-01 14:33N 51°24' E 001°58'1212.2
2014-Aug-01 13:33N 51°21' E 002°17'1212.5
2014-Aug-01 12:33N 51°23' E 002°36'1313.4
2014-Aug-01 11:33N 51°23' E 002°58'1414.1
2014-Aug-01 10:33N 51°24' E 003°20'1313.5
2014-Aug-01 09:33N 51°26' E 003°42'1010.2
2014-Aug-01 08:33N 51°26' E 003°58'1111.2
2014-Aug-01 07:33N 51°21' E 004°15'2 1.6
2014-Aug-01 06:33N 51°21' E 004°17'1 0.7
2014-Aug-01 05:33N 51°20' E 004°18'5 4.6
2014-Aug-01 04:33N 51°16' E 004°21'1 1.1
2014-Aug-01 03:33N 51°15' E 004°22'0 0.0
2014-Aug-01 02:33N 51°15' E 004°22'0 0.0
2014-Aug-01 01:33N 51°15' E 004°22'0 0.0
2014-Aug-01 00:30N 51°15' E 004°22'0 0.0
2014-Jul-31 23:33N 51°15' E 004°22'0 0.0
2014-Jul-31 22:30N 51°15' E 004°22'0 0.0
2014-Jul-31 21:30N 51°15' E 004°22'0 0.0
2014-Jul-31 20:33N 51°15' E 004°22'0 0.0
2014-Jul-31 19:33N 51°15' E 004°22'0 0.0
2014-Jul-31 18:33N 51°15' E 004°22'0 0.0
2014-Jul-31 17:33N 51°15' E 004°22'0 0.0
2014-Jul-31 16:33N 51°15' E 004°22'0 0.0
2014-Jul-31 15:33N 51°15' E 004°22'0 0.0
2014-Jul-31 14:33N 51°15' E 004°22'0 0.0
2014-Jul-31 13:33N 51°15' E 004°22'0 0.0
2014-Jul-31 12:33N 51°15' E 004°22'0 0.0
2014-Jul-31 11:33N 51°15' E 004°22'0 0.0
2014-Jul-31 10:30N 51°15' E 004°22'0 0.0
2014-Jul-31 09:33N 51°15' E 004°22'0 0.0
2014-Jul-31 08:33N 51°15' E 004°22'0 0.0
2014-Jul-31 07:33N 51°15' E 004°22'0 0.0
2014-Jul-31 06:33N 51°15' E 004°22'0 0.0
2014-Jul-31 05:33N 51°15' E 004°22'0 0.0
2014-Jul-31 04:33N 51°15' E 004°22'0 0.0
2014-Jul-31 03:33N 51°15' E 004°22'0 0.0
2014-Jul-31 02:33N 51°15' E 004°22'0 0.0
2014-Jul-31 01:33N 51°15' E 004°22'0 0.0
2014-Jul-31 00:33N 51°15' E 004°22'0 0.0
2014-Jul-30 23:33N 51°15' E 004°22'0 0.2
2014-Jul-30 22:34N 51°15' E 004°22'5 4.6
2014-Jul-30 21:33N 51°19' E 004°19'2 1.6
2014-Jul-30 20:33N 51°21' E 004°17'0 0.5
2014-Jul-30 19:33N 51°21' E 004°16'5 4.6
2014-Jul-30 18:33N 51°23' E 004°10'7 7.4
2014-Jul-30 17:33N 51°26' E 003°59'1010.0
2014-Jul-30 16:33N 51°22' E 003°45'1413.7
2014-Jul-30 15:33N 51°30' E 003°27'10013.7
2014-Jul-30 08:16N 52°55' E 002°03'1115.9
2014-Jul-30 07:33N 53°03' E 001°49'1515.3
2014-Jul-30 06:33N 53°14' E 001°31'5114.7
2014-Jul-30 03:07N 53°52' E 000°34'814.0
2014-Jul-30 02:33N 53°57' E 000°25'1413.7
2014-Jul-30 01:33N 54°07' E 000°10'1313.0
2014-Jul-30 00:33N 54°17' W 000°05'1313.0
2014-Jul-29 23:33N 54°27' W 000°20'1312.5
2014-Jul-29 22:33N 54°35' W 000°37'1413.4
2014-Jul-29 21:33N 54°40' W 000°59'7 1.0
2014-Jul-29 14:24N 54°37' W 001°10'0 0.0
2014-Jul-29 13:12N 54°37' W 001°10'0 0.0
2014-Jul-29 12:12N 54°37' W 001°10'0 0.0
2014-Jul-29 11:30N 54°37' W 001°10'0 0.0
2014-Jul-29 09:30N 54°37' W 001°10'0 0.0
2014-Jul-29 08:21N 54°37' W 001°10'0 0.0
2014-Jul-29 07:18N 54°37' W 001°10'0 0.0
2014-Jul-29 06:06N 54°37' W 001°10'0 0.0
2014-Jul-29 05:27N 54°37' W 001°10'0 0.0
2014-Jul-28 20:04N 54°37' W 001°09'5 8.0
2014-Jul-28 19:28N 54°41' W 001°05'2 2.3
2014-Jul-28 18:24N 54°40' W 001°01'0 0.0
2014-Jul-28 17:33N 54°40' W 001°01'0 0.0
2014-Jul-28 16:24N 54°40' W 001°01'0 0.0
2014-Jul-28 15:24N 54°40' W 001°01'0 0.0
2014-Jul-28 14:33N 54°40' W 001°01'0 0.0
2014-Jul-28 13:33N 54°40' W 001°01'0 0.0
2014-Jul-28 12:24N 54°40' W 001°01'0 0.0
2014-Jul-28 10:33N 54°40' W 001°01'0 0.0
2014-Jul-28 09:21N 54°40' W 001°01'0 0.0
2014-Jul-28 08:33N 54°40' W 001°01'0 0.0
2014-Jul-28 07:33N 54°40' W 001°01'0 0.0
2014-Jul-28 06:33N 54°40' W 001°01'0 0.0
2014-Jul-28 05:27N 54°40' W 001°01'0 0.0
2014-Jul-28 04:33N 54°40' W 001°01'2 2.0
2014-Jul-28 03:32N 54°41' W 000°59'7 7.1
2014-Jul-28 02:33N 54°45' W 000°48'8 7.5
2014-Jul-28 01:33N 54°48' W 000°36'8 8.0
2014-Jul-28 00:33N 54°51' W 000°24'1311.6
2014-Jul-27 23:25N 54°57' W 000°03'2412.9
2014-Jul-27 21:32N 55°07' E 000°36'34913.4
2014-Jul-26 19:32N 57°47' E 009°56'1313.8
2014-Jul-26 18:33N 57°49' E 010°21'1413.8
2014-Jul-26 17:33N 57°47' E 010°46'1413.8
2014-Jul-26 16:33N 57°38' E 011°06'2713.2
2014-Jul-26 14:33N 57°17' E 011°35'1413.6
2014-Jul-26 13:33N 57°04' E 011°42'1413.5
2014-Jul-26 12:32N 56°51' E 011°51'1414.0
2014-Jul-26 11:33N 56°38' E 011°57'1413.6
2014-Jul-26 10:33N 56°24' E 012°03'1312.8
2014-Jul-26 09:33N 56°14' E 012°16'1413.8
2014-Jul-26 08:33N 56°05' E 012°36'1313.4
2014-Jul-26 07:33N 55°53' E 012°44'1313.4
2014-Jul-26 06:33N 55°41' E 012°55'9 8.6
2014-Jul-26 05:33N 55°33' E 012°48'9 8.9
2014-Jul-26 04:34N 55°25' E 012°41'10 9.5
2014-Jul-26 03:33N 55°17' E 012°49'1311.6
2014-Jul-26 02:27N 55°15' E 013°11'1212.1
2014-Jul-26 01:29N 55°14' E 013°32'1412.2
2014-Jul-26 00:21N 55°13' E 013°56'1012.2
2014-Jul-25 23:31N 55°14' E 014°14'1111.6
2014-Jul-25 22:33N 55°22' E 014°27'1212.4
2014-Jul-25 21:33N 55°30' E 014°43'1312.7
2014-Jul-25 20:33N 55°37' E 015°02'1313.0
2014-Jul-25 19:33N 55°43' E 015°22'1313.5
2014-Jul-25 18:33N 55°50' E 015°43'1413.8
2014-Jul-25 17:33N 55°56' E 016°05'1413.9
2014-Jul-25 16:33N 56°03' E 016°27'1413.6
2014-Jul-25 15:32N 56°12' E 016°46'1413.9
2014-Jul-25 14:33N 56°25' E 016°52'1414.1
2014-Jul-25 13:33N 56°38' E 016°58'1414.0
2014-Jul-25 12:33N 56°52' E 017°05'1414.0
2014-Jul-25 11:33N 57°05' E 017°12'1414.0
2014-Jul-25 10:33N 57°19' E 017°18'1414.0
2014-Jul-25 09:33N 57°33' E 017°24'1413.8
2014-Jul-25 08:33N 57°46' E 017°30'1413.8
2014-Jul-25 07:33N 57°60' E 017°36'1413.7
2014-Jul-25 06:33N 58°13' E 017°42'28 1.2
2014-Jul-24 07:21N 58°37' E 017°14'1114.2
2014-Jul-24 06:33N 58°36' E 016°52'1313.3
2014-Jul-24 05:33N 58°39' E 016°27'7 6.6
2014-Jul-24 04:32N 58°37' E 016°15'0 0.0
2014-Jul-24 03:32N 58°37' E 016°15'0 0.0
2014-Jul-24 02:32N 58°37' E 016°15'0 0.0
2014-Jul-24 01:32N 58°37' E 016°15'0 0.0
2014-Jul-24 00:32N 58°37' E 016°15'0 0.0
2014-Jul-23 23:32N 58°37' E 016°15'0 0.0
2014-Jul-23 22:32N 58°37' E 016°15'0 0.0
2014-Jul-23 21:32N 58°37' E 016°15'0 0.0
2014-Jul-23 20:32N 58°37' E 016°15'0 0.0
2014-Jul-23 19:32N 58°37' E 016°15'0 0.0
2014-Jul-23 18:32N 58°37' E 016°15'0 0.0
2014-Jul-23 17:32N 58°37' E 016°15'0 0.0
2014-Jul-23 16:32N 58°37' E 016°15'0 0.0
2014-Jul-23 15:32N 58°37' E 016°15'0 0.0
2014-Jul-23 14:32N 58°37' E 016°15'0 0.0
2014-Jul-23 13:33N 58°37' E 016°15'5 4.7
2014-Jul-23 12:33N 58°39' E 016°23'1312.7
2014-Jul-23 11:33N 58°37' E 016°48'43 9.7
2014-Jul-23 07:08N 57°59' E 017°25'813.6
2014-Jul-23 06:33N 57°51' E 017°24'1413.5
2014-Jul-23 05:30N 57°37' E 017°22'1313.3
2014-Jul-23 04:33N 57°25' E 017°20'1313.0
2014-Jul-23 03:33N 57°12' E 017°16'1313.0
2014-Jul-23 02:33N 56°59' E 017°11'1313.2
2014-Jul-23 01:33N 56°46' E 017°06'1313.5
2014-Jul-23 00:33N 56°33' E 017°00'1413.3
2014-Jul-22 23:31N 56°19' E 016°55'1313.3
2014-Jul-22 22:33N 56°07' E 016°50'1913.1
2014-Jul-22 21:05N 55°55' E 016°23'  

Dump ship's entire track history